Time;durP1;ratioP1;P1;durP2;ratioP2;P2;SDS_P1;SDS_P2;PMS_P1;PMS_P2;Temp;Humidity;BMP_temperature;BMP_pressure;BME280_temperature;BME280_humidity;BME280_pressure;Samples;Min_cycle;Max_cycle;Signal;HPM_P1;HPM_P2
2023/05/13 00:01:55;;;;;;;;;;;;;;;4.22;74.19;96934.19;5096543;28;19920;-64
2023/05/13 00:04:23;;;;;;;;;;;;;;;4.26;74.27;96929.81;5096255;28;20361;-67
2023/05/13 00:06:51;;;;;;;;;;;;;;;4.27;74.05;96932.41;5096339;28;19926;-66
2023/05/13 00:09:19;;;;;;;;;;;;;;;4.28;73.86;96934.13;5096234;28;19926;-67
2023/05/13 00:11:46;;;;;;;;;;;;;;;4.30;73.95;96934.09;5096058;28;20023;-63
2023/05/13 00:14:12;;;;;;;;;;;;;;;4.30;73.92;96934.97;5096066;28;19927;-65
2023/05/13 00:16:39;;;;;;;;;;;;;;;4.29;73.56;96937.56;5096048;28;19924;-67
2023/05/13 00:19:06;;;;;;;;;;;;;;;4.27;73.54;96940.16;5096214;28;20262;-65
2023/05/13 00:21:33;;;;;;;;;;;;;;;4.24;73.58;96934.16;5095880;28;19923;-65
2023/05/13 00:24:02;;;;;;;;;;;;;;;4.25;73.84;96928.09;5095761;28;20366;-64
2023/05/13 00:26:28;;;;;;;;;;;;;;;4.25;73.64;96928.94;5095820;28;19959;-65
2023/05/13 00:28:55;;;;;;;;;;;;;;;4.23;74.03;96922.94;5095756;28;20447;-66
2023/05/13 00:31:22;;;;;;;;;;;;;;;4.20;74.17;96929.84;5095791;28;19923;-67
2023/05/13 00:33:49;;;;;;;;;;;;;;;4.18;74.20;96924.69;5095774;28;20010;-65
2023/05/13 00:36:16;;;;;;;;;;;;;;;4.14;73.69;96935.94;5095680;28;20324;-65
2023/05/13 00:38:43;;;;;;;;;;;;;;;4.11;73.43;96939.41;5095714;28;19920;-64
2023/05/13 00:41:12;;;;;;;;;;;;;;;4.03;73.51;96939.44;5095849;28;19920;-67
2023/05/13 00:43:39;;;;;;;;;;;;;;;3.99;73.80;96934.28;5095682;28;19924;-65
2023/05/13 00:46:06;;;;;;;;;;;;;;;3.96;73.91;96939.47;5095392;28;19971;-67
2023/05/13 00:48:33;;;;;;;;;;;;;;;3.91;73.35;96936.91;5095377;28;19920;-64
2023/05/13 00:51:00;;;;;;;;;;;;;;;3.85;74.63;96937.81;5095383;28;20380;-65
2023/05/13 00:53:27;;;;;;;;;;;;;;;3.84;75.04;96932.63;5095191;28;20022;-66
2023/05/13 00:55:54;;;;;;;;;;;;;;;3.84;75.05;96932.63;5095356;28;19920;-65
2023/05/13 00:58:22;;;;;;;;;;;;;;;3.83;74.72;96941.28;5095362;28;19924;-67
2023/05/13 01:00:55;;;;;;;;;;;;;;;3.79;74.56;96936.13;5095097;28;20332;-67
2023/05/13 01:03:27;;;;;;;;;;;;;;;3.70;75.30;96938.72;5095352;28;20011;-66
2023/05/13 01:06:00;;;;;;;;;;;;;;;3.71;75.62;96935.31;5095030;28;19920;-65
2023/05/13 01:08:32;;;;;;;;;;;;;;;3.63;75.25;96930.16;5095062;28;19963;-64
2023/05/13 01:11:01;;;;;;;;;;;;;;;3.65;75.53;96933.56;5094003;28;20339;-67
2023/05/13 01:13:35;;;;;;;;;;;;;;;3.65;75.57;96928.41;5094861;28;20023;-64
2023/05/13 01:16:06;;;;;;;;;;;;;;;3.63;75.80;96931.88;5094992;28;20372;-64
2023/05/13 01:18:36;;;;;;;;;;;;;;;3.63;75.68;96931.88;5094625;28;20376;-65
2023/05/13 01:21:03;;;;;;;;;;;;;;;3.63;75.54;96939.63;5094639;28;19927;-67
2023/05/13 01:23:32;;;;;;;;;;;;;;;3.66;75.59;96955.16;5094752;28;19920;-66
2023/05/13 01:25:59;;;;;;;;;;;;;;;3.71;75.40;96960.31;5094978;28;19927;-66
2023/05/13 01:28:26;;;;;;;;;;;;;;;3.62;74.92;96959.50;5094667;28;19974;-67
2023/05/13 01:30:55;;;;;;;;;;;;;;;3.58;75.02;96962.94;5094633;28;19973;-64
2023/05/13 01:33:21;;;;;;;;;;;;;;;3.54;75.02;96974.16;5094549;28;20384;-67
2023/05/13 01:35:48;;;;;;;;;;;;;;;3.56;75.66;96959.50;5094480;28;19926;-64
2023/05/13 01:38:15;;;;;;;;;;;;;;;3.56;75.68;96959.50;5094546;28;19973;-65
2023/05/13 01:40:45;;;;;;;;;;;;;;;3.58;75.50;96960.34;5094406;28;19943;-66
2023/05/13 01:43:11;;;;;;;;;;;;;;;3.57;75.77;96957.75;5094373;28;20536;-67
2023/05/13 01:45:38;;;;;;;;;;;;;;;3.53;75.40;96962.94;5094540;28;19927;-66
2023/05/13 01:48:06;;;;;;;;;;;;;;;3.43;75.86;96963.84;5094216;28;19999;-64
2023/05/13 01:50:33;;;;;;;;;;;;;;;3.40;75.76;96964.72;5094561;28;19923;-66
2023/05/13 01:52:59;;;;;;;;;;;;;;;3.29;76.01;96977.66;5094145;28;20372;-67
2023/05/13 01:55:26;;;;;;;;;;;;;;;3.29;76.03;96972.50;5094119;28;19986;-64
2023/05/13 01:57:55;;;;;;;;;;;;;;;3.27;75.86;96969.06;5094117;28;19982;-65
2023/05/13 02:00:22;;;;;;;;;;;;;;;3.22;76.23;96968.19;5093957;28;20006;-65
2023/05/13 02:02:49;;;;;;;;;;;;;;;3.21;76.40;96963.91;5094132;28;19924;-64
2023/05/13 02:05:16;;;;;;;;;;;;;;;3.19;76.51;96970.78;5093980;28;19924;-66
2023/05/13 02:07:43;;;;;;;;;;;;;;;3.16;76.88;96970.78;5094138;28;20300;-65
2023/05/13 02:10:10;;;;;;;;;;;;;;;3.15;77.20;96972.53;5094183;28;19920;-65
2023/05/13 02:12:37;;;;;;;;;;;;;;;3.09;77.71;96976.84;5093869;28;20294;-65
2023/05/13 02:15:06;;;;;;;;;;;;;;;3.06;77.70;96974.25;5093972;28;19943;-66
2023/05/13 02:17:33;;;;;;;;;;;;;;;3.06;77.63;96980.28;5093828;28;19920;-65
2023/05/13 02:19:59;;;;;;;;;;;;;;;3.10;77.31;96976.00;5094059;28;19920;-65
2023/05/13 02:22:27;;;;;;;;;;;;;;;3.03;77.52;96983.75;5093554;28;19928;-65
2023/05/13 02:24:54;;;;;;;;;;;;;;;3.01;77.93;96984.63;5093724;28;20270;-68
2023/05/13 02:27:22;;;;;;;;;;;;;;;3.01;77.90;96990.63;5093742;28;19927;-68
2023/05/13 02:29:49;;;;;;;;;;;;;;;3.05;78.15;96981.16;5093729;28;19920;-68
2023/05/13 02:32:18;;;;;;;;;;;;;;;3.06;77.73;96980.28;5093642;28;19930;-67
2023/05/13 02:34:44;;;;;;;;;;;;;;;3.06;77.88;96982.88;5093637;28;20427;-67
2023/05/13 02:37:11;;;;;;;;;;;;;;;3.03;77.49;96976.00;5093655;28;19924;-67
2023/05/13 02:39:38;;;;;;;;;;;;;;;2.96;77.48;96965.66;5093593;28;19924;-68
2023/05/13 02:42:05;;;;;;;;;;;;;;;2.90;77.78;96969.97;5093602;28;19920;-65
2023/05/13 02:44:32;;;;;;;;;;;;;;;2.92;78.15;96966.53;5093825;28;19927;-65
2023/05/13 02:46:59;;;;;;;;;;;;;;;2.96;77.91;96968.25;5093293;28;19970;-64
2023/05/13 02:49:28;;;;;;;;;;;;;;;3.00;77.57;96973.41;5093527;28;19924;-67
2023/05/13 02:51:55;;;;;;;;;;;;;;;3.02;77.49;96968.25;5093543;28;19920;-64
2023/05/13 02:54:21;;;;;;;;;;;;;;;2.97;77.57;96960.47;5093418;28;19982;-66
2023/05/13 02:56:49;;;;;;;;;;;;;;;3.01;77.71;96959.59;5093486;28;20022;-66
2023/05/13 02:59:15;;;;;;;;;;;;;;;3.07;77.31;96957.91;5093333;28;19920;-64
2023/05/13 03:01:42;;;;;;;;;;;;;;;3.08;77.32;96964.78;5093424;28;19927;-67
2023/05/13 03:04:09;;;;;;;;;;;;;;;3.10;77.70;96958.72;5093482;28;20015;-65
2023/05/13 03:06:37;;;;;;;;;;;;;;;3.10;78.01;96965.66;5093412;28;19920;-64
2023/05/13 03:09:04;;;;;;;;;;;;;;;3.12;77.90;96969.94;5093302;28;19927;-67
2023/05/13 03:11:31;;;;;;;;;;;;;;;3.12;77.39;96964.78;5093180;28;20429;-68
2023/05/13 03:13:58;;;;;;;;;;;;;;;3.11;77.32;96962.19;5093212;28;19931;-64
2023/05/13 03:16:25;;;;;;;;;;;;;;;3.11;77.27;96969.94;5093303;28;19920;-65
2023/05/13 03:18:52;;;;;;;;;;;;;;;3.11;76.94;96978.56;5093154;28;19920;-67
2023/05/13 03:21:19;;;;;;;;;;;;;;;3.13;77.19;96991.50;5093062;28;19926;-66
2023/05/13 03:23:47;;;;;;;;;;;;;;;3.16;78.06;96997.50;5093082;28;19970;-66
2023/05/13 03:26:15;;;;;;;;;;;;;;;3.21;77.70;97009.56;5093134;28;19924;-66
2023/05/13 03:28:42;;;;;;;;;;;;;;;3.26;77.91;97007.84;5093264;28;19928;-65
2023/05/13 03:31:09;;;;;;;;;;;;;;;3.29;77.83;97010.44;5093375;28;19920;-66
2023/05/13 03:33:37;;;;;;;;;;;;;;;3.37;77.94;97018.19;5094233;28;19924;-65
2023/05/13 03:36:04;;;;;;;;;;;;;;;3.45;77.82;97025.91;5096866;28;20423;-64
2023/05/13 03:38:31;;;;;;;;;;;;;;;3.48;77.93;97029.38;5096732;28;20344;-66
2023/05/13 03:41:00;;;;;;;;;;;;;;;3.51;77.16;97038.84;5096737;28;19920;-65
2023/05/13 03:43:28;;;;;;;;;;;;;;;3.56;77.18;97039.72;5096710;28;19924;-66
2023/05/13 03:45:56;;;;;;;;;;;;;;;3.66;77.41;97038.81;5096681;28;19974;-67
2023/05/13 03:48:23;;;;;;;;;;;;;;;3.85;77.72;97045.69;5096440;28;19920;-65
2023/05/13 03:50:51;;;;;;;;;;;;;;;4.14;78.03;97035.22;5096634;28;19920;-65
2023/05/13 03:53:19;;;;;;;;;;;;;;;4.49;77.16;97040.22;5096558;28;19927;-66
2023/05/13 03:55:46;;;;;;;;;;;;;;;4.87;75.64;97038.22;5096470;28;19974;-65
2023/05/13 03:58:14;;;;;;;;;;;;;;;5.29;74.31;97032.72;5096540;28;19920;-66
2023/05/13 04:00:45;;;;;;;;;;;;;;;5.69;72.74;97032.31;5096352;28;19923;-66
2023/05/13 04:03:12;;;;;;;;;;;;;;;6.15;71.64;97027.53;5096345;28;20281;-67
2023/05/13 04:05:39;;;;;;;;;;;;;;;6.61;69.81;97029.50;5096218;28;20335;-66
2023/05/13 04:08:06;;;;;;;;;;;;;;;7.07;68.28;97036.63;5096178;28;19931;-64
2023/05/13 04:10:34;;;;;;;;;;;;;;;7.52;67.37;97034.13;5096060;28;19973;-64
2023/05/13 04:13:00;;;;;;;;;;;;;;;7.93;65.27;97042.09;5096330;28;20316;-65
2023/05/13 04:15:30;;;;;;;;;;;;;;;8.31;63.95;97035.22;5096035;28;19965;-66
2023/05/13 04:17:58;;;;;;;;;;;;;;;8.68;62.94;97040.59;5096052;28;19974;-64
2023/05/13 04:20:25;;;;;;;;;;;;;;;9.05;61.67;97044.94;5095863;28;20019;-64
2023/05/13 04:22:52;;;;;;;;;;;;;;;9.41;61.31;97046.69;5096203;28;19920;-65
2023/05/13 04:25:19;;;;;;;;;;;;;;;9.64;60.79;97044.38;5095848;28;20335;-64
2023/05/13 04:27:47;;;;;;;;;;;;;;;9.89;60.09;97046.34;5095865;28;20335;-66
2023/05/13 04:30:14;;;;;;;;;;;;;;;10.18;59.79;97040.28;5095852;28;19931;-67
2023/05/13 04:32:44;;;;;;;;;;;;;;;10.59;59.15;97047.00;5095697;28;19970;-65
2023/05/13 04:35:10;;;;;;;;;;;;;;;10.92;58.72;97036.41;5095867;28;19920;-67
2023/05/13 04:37:38;;;;;;;;;;;;;;;11.30;57.56;97048.31;5095710;28;19920;-64
2023/05/13 04:40:06;;;;;;;;;;;;;;;11.63;57.43;97048.09;5095438;28;19920;-64
2023/05/13 04:42:34;;;;;;;;;;;;;;;11.93;56.83;97054.94;5095487;28;19927;-66
2023/05/13 04:45:01;;;;;;;;;;;;;;;12.28;55.59;97052.00;5095404;28;19919;-66
2023/05/13 04:47:29;;;;;;;;;;;;;;;12.53;55.31;97054.56;5095309;28;19920;-67
2023/05/13 04:49:59;;;;;;;;;;;;;;;12.86;55.32;97051.53;5095380;28;19920;-65
2023/05/13 04:52:27;;;;;;;;;;;;;;;13.14;54.27;97060.97;5095295;28;19920;-65
2023/05/13 04:54:54;;;;;;;;;;;;;;;13.30;53.76;97068.22;5095072;28;19926;-66
2023/05/13 04:57:22;;;;;;;;;;;;;;;13.40;52.90;97052.94;5095251;28;19923;-65
2023/05/13 04:59:49;;;;;;;;;;;;;;;13.59;51.82;97058.31;5095101;28;19927;-66
2023/05/13 05:02:16;;;;;;;;;;;;;;;13.79;50.75;97055.75;5095376;28;19926;-66
2023/05/13 05:04:43;;;;;;;;;;;;;;;13.93;50.14;97056.00;5095094;28;20353;-66
2023/05/13 05:07:12;;;;;;;;;;;;;;;14.14;49.91;97056.84;5095048;28;19920;-65
2023/05/13 05:09:39;;;;;;;;;;;;;;;14.36;48.50;97061.16;5095037;28;19919;-66
2023/05/13 05:12:07;;;;;;;;;;;;;;;14.60;47.40;97058.31;5094990;28;20422;-66
2023/05/13 05:14:34;;;;;;;;;;;;;;;14.78;47.98;97059.28;5095009;28;19949;-66
2023/05/13 05:17:01;;;;;;;;;;;;;;;15.01;46.33;97064.38;5094975;28;19920;-66
2023/05/13 05:19:29;;;;;;;;;;;;;;;14.91;46.33;97083.25;5094841;28;19926;-66
2023/05/13 05:21:56;;;;;;;;;;;;;;;15.02;47.14;97082.75;5094933;28;20377;-66
2023/05/13 05:24:26;;;;;;;;;;;;;;;15.32;45.65;97085.78;5094723;28;19927;-67
2023/05/13 05:26:53;;;;;;;;;;;;;;;15.61;45.20;97086.13;5094621;28;19920;-66
2023/05/13 05:29:21;;;;;;;;;;;;;;;15.87;44.50;97099.78;5094658;28;20002;-67
2023/05/13 05:31:48;;;;;;;;;;;;;;;16.10;42.28;97098.63;5094934;28;20366;-66
2023/05/13 05:34:15;;;;;;;;;;;;;;;16.37;41.69;97097.25;5094678;28;20550;-65
2023/05/13 05:36:42;;;;;;;;;;;;;;;16.55;40.38;97090.16;5094619;28;20019;-67
2023/05/13 05:39:10;;;;;;;;;;;;;;;16.86;40.23;97087.66;5094384;28;19928;-67
2023/05/13 05:41:39;;;;;;;;;;;;;;;16.97;40.64;97087.91;5094342;28;20048;-67
2023/05/13 05:44:06;;;;;;;;;;;;;;;17.25;41.35;97096.13;5094448;28;19920;-67
2023/05/13 05:46:33;;;;;;;;;;;;;;;17.52;41.46;97101.63;5094219;28;19920;-67
2023/05/13 05:49:02;;;;;;;;;;;;;;;17.79;40.48;97111.53;5094018;28;19965;-67
2023/05/13 05:51:29;;;;;;;;;;;;;;;17.97;39.16;97111.41;5094228;28;20011;-66
2023/05/13 05:53:58;;;;;;;;;;;;;;;18.19;38.71;97105.69;5094104;28;19926;-66
2023/05/13 05:56:25;;;;;;;;;;;;;;;18.28;37.76;97109.63;5093777;28;20422;-67
2023/05/13 05:58:55;;;;;;;;;;;;;;;18.46;38.56;97101.50;5094197;28;20365;-66
2023/05/13 06:01:22;;;;;;;;;;;;;;;18.42;36.03;97108.75;5094110;28;20053;-66
2023/05/13 06:03:49;;;;;;;;;;;;;;;18.51;34.63;97099.41;5094218;28;19962;-66
2023/05/13 06:06:16;;;;;;;;;;;;;;;18.46;34.20;97092.69;5093939;28;19920;-67
2023/05/13 06:08:43;;;;;;;;;;;;;;;18.43;33.90;97096.38;5093888;28;19920;-67
2023/05/13 06:11:10;;;;;;;;;;;;;;;18.66;37.68;97087.00;5094019;28;19920;-67
2023/05/13 06:13:37;;;;;;;;;;;;;;;18.87;33.82;97091.91;5093957;28;19949;-67
2023/05/13 06:16:06;;;;;;;;;;;;;;;19.05;35.37;97095.19;5093867;28;20010;-67
2023/05/13 06:18:33;;;;;;;;;;;;;;;18.93;32.07;97094.16;5093819;28;19970;-67
2023/05/13 06:21:00;;;;;;;;;;;;;;;19.04;34.40;97090.84;5093735;28;20041;-67
2023/05/13 06:23:27;;;;;;;;;;;;;;;19.03;34.46;97083.81;5093822;28;19939;-66
2023/05/13 06:25:58;;;;;;;;;;;;;;;19.09;35.51;97081.75;5093830;28;19920;-66
2023/05/13 06:28:25;;;;;;;;;;;;;;;18.98;35.35;97090.38;5093783;28;19920;-66
2023/05/13 06:30:53;;;;;;;;;;;;;;;19.03;34.32;97089.13;5093702;28;19978;-66
2023/05/13 06:33:21;;;;;;;;;;;;;;;19.18;32.83;97081.19;5093635;28;20014;-66
2023/05/13 06:35:48;;;;;;;;;;;;;;;19.09;30.44;97087.94;5093679;28;19920;-66
2023/05/13 06:38:16;;;;;;;;;;;;;;;18.56;30.53;97096.47;5093577;28;20014;-66
2023/05/13 06:40:43;;;;;;;;;;;;;;;18.29;32.22;97090.13;5093511;28;19926;-66
2023/05/13 06:43:11;;;;;;;;;;;;;;;18.25;34.50;97090.41;5093606;28;19920;-66
2023/05/13 06:45:38;;;;;;;;;;;;;;;17.94;30.06;97093.91;5093764;28;19971;-66
2023/05/13 06:48:08;;;;;;;;;;;;;;;17.68;30.47;97101.59;5093361;28;19920;-66
2023/05/13 06:50:37;;;;;;;;;;;;;;;17.67;31.13;97097.22;5093712;28;19920;-66
2023/05/13 06:53:04;;;;;;;;;;;;;;;17.79;31.92;97106.25;5093417;28;19979;-66
2023/05/13 06:55:30;;;;;;;;;;;;;;;17.37;33.20;97113.09;5093518;28;20332;-66
2023/05/13 06:57:58;;;;;;;;;;;;;;;16.53;31.57;97115.81;5093486;28;19920;-66
2023/05/13 07:00:25;;;;;;;;;;;;;;;16.16;33.87;97116.78;5093286;28;19923;-66
2023/05/13 07:02:52;;;;;;;;;;;;;;;16.32;33.43;97101.94;5093425;28;20361;-66
2023/05/13 07:05:19;;;;;;;;;;;;;;;16.46;31.93;97112.63;5093243;28;19924;-66
2023/05/13 07:07:52;;;;;;;;;;;;;;;16.73;34.26;97106.81;5093375;28;20301;-66
2023/05/13 07:10:19;;;;;;;;;;;;;;;16.88;32.35;97113.03;5097170;28;19924;-66
2023/05/13 07:12:48;;;;;;;;;;;;;;;17.16;33.30;97126.56;5097475;28;20020;-66
2023/05/13 07:15:15;;;;;;;;;;;;;;;17.30;31.52;97120.50;5097117;28;19920;-66
2023/05/13 07:17:42;;;;;;;;;;;;;;;17.50;33.91;97113.22;5097148;28;19920;-66
2023/05/13 07:20:10;;;;;;;;;;;;;;;17.72;31.14;97104.91;5097212;28;20010;-66
2023/05/13 07:22:37;;;;;;;;;;;;;;;17.66;31.55;97107.91;5096979;28;19920;-66
2023/05/13 07:25:06;;;;;;;;;;;;;;;17.48;33.17;97104.53;5097085;28;19927;-66
2023/05/13 07:27:34;;;;;;;;;;;;;;;17.32;32.38;97113.34;5097009;28;19920;-66
2023/05/13 07:30:00;;;;;;;;;;;;;;;17.36;33.02;97114.00;5097294;28;19924;-66
2023/05/13 07:32:28;;;;;;;;;;;;;;;17.58;33.22;97124.22;5096870;28;19923;-66
2023/05/13 07:34:55;;;;;;;;;;;;;;;17.77;32.57;97131.09;5096872;28;19963;-66
2023/05/13 07:37:22;;;;;;;;;;;;;;;18.14;32.93;97122.81;5096841;28;19927;-66
2023/05/13 07:39:49;;;;;;;;;;;;;;;18.31;32.51;97122.66;5096821;28;19927;-66
2023/05/13 07:42:20;;;;;;;;;;;;;;;18.57;31.05;97111.41;5096652;28;19926;-66
2023/05/13 07:44:47;;;;;;;;;;;;;;;18.93;30.34;97111.84;5096699;28;20015;-66
2023/05/13 07:47:15;;;;;;;;;;;;;;;19.39;31.95;97108.09;5096534;28;19924;-66
2023/05/13 07:49:42;;;;;;;;;;;;;;;19.11;30.13;97109.03;5096584;28;19920;-66
2023/05/13 07:52:09;;;;;;;;;;;;;;;18.80;28.86;97111.78;5096597;28;19920;-66
2023/05/13 07:54:35;;;;;;;;;;;;;;;18.65;31.55;97109.16;5096500;28;19920;-66
2023/05/13 07:57:02;;;;;;;;;;;;;;;18.77;29.94;97118.13;5096307;28;19973;-66
2023/05/13 07:59:31;;;;;;;;;;;;;;;19.30;31.08;97120.16;5096462;28;20404;-66
2023/05/13 08:01:58;;;;;;;;;;;;;;;19.61;29.97;97114.66;5096332;28;20030;-66
2023/05/13 08:04:24;;;;;;;;;;;;;;;19.36;28.97;97100.34;5096437;28;19920;-65
2023/05/13 08:06:51;;;;;;;;;;;;;;;19.41;29.96;97098.25;5096284;28;19920;-66
2023/05/13 08:09:18;;;;;;;;;;;;;;;19.21;30.72;97101.34;5096224;28;19958;-66
2023/05/13 08:11:45;;;;;;;;;;;;;;;19.40;32.55;97087.72;5096176;28;19920;-66
2023/05/13 08:14:12;;;;;;;;;;;;;;;19.63;30.82;97106.59;5096164;28;19920;-66
2023/05/13 08:16:41;;;;;;;;;;;;;;;19.55;32.53;97099.13;5096254;28;19924;-66
2023/05/13 08:19:10;;;;;;;;;;;;;;;19.86;29.94;97098.91;5095726;28;19920;-66
2023/05/13 08:21:36;;;;;;;;;;;;;;;19.48;27.70;97095.19;5096020;28;20007;-66
2023/05/13 08:24:03;;;;;;;;;;;;;;;19.19;28.65;97091.69;5096074;28;20328;-66
2023/05/13 08:26:30;;;;;;;;;;;;;;;18.35;29.32;97088.91;5095846;28;19930;-66
2023/05/13 08:28:57;;;;;;;;;;;;;;;18.47;29.43;97094.38;5095848;28;19927;-67
2023/05/13 08:31:24;;;;;;;;;;;;;;;18.77;29.88;97085.47;5095851;28;19930;-66
2023/05/13 08:33:52;;;;;;;;;;;;;;;18.55;29.46;97092.13;5095497;28;19920;-66
2023/05/13 08:36:20;;;;;;;;;;;;;;;18.50;31.32;97081.81;5095692;28;20436;-66
2023/05/13 08:38:47;;;;;;;;;;;;;;;18.51;28.81;97090.63;5095595;28;19927;-67
2023/05/13 08:41:15;;;;;;;;;;;;;;;18.05;30.66;97087.13;5095557;28;19920;-67
2023/05/13 08:43:43;;;;;;;;;;;;;;;17.84;30.83;97081.31;5095596;28;19919;-66
2023/05/13 08:46:10;;;;;;;;;;;;;;;17.52;31.02;97085.75;5095352;28;20366;-67
2023/05/13 08:48:38;;;;;;;;;;;;;;;17.40;31.03;97083.81;5095282;28;20101;-66
2023/05/13 08:51:06;;;;;;;;;;;;;;;17.36;32.71;97088.44;5095338;28;19924;-66
2023/05/13 08:53:34;;;;;;;;;;;;;;;17.66;31.51;97087.59;5095353;28;19989;-66
2023/05/13 08:56:01;;;;;;;;;;;;;;;17.98;33.22;97076.06;5095307;28;20381;-66
2023/05/13 08:58:28;;;;;;;;;;;;;;;18.26;30.98;97081.50;5095262;28;19965;-66
2023/05/13 09:00:56;;;;;;;;;;;;;;;18.17;29.81;97088.22;5095246;28;19920;-67
2023/05/13 09:03:23;;;;;;;;;;;;;;;18.25;32.97;97078.03;5095127;28;20430;-66
2023/05/13 09:05:51;;;;;;;;;;;;;;;18.39;30.22;97079.81;5095222;28;20262;-66
2023/05/13 09:08:20;;;;;;;;;;;;;;;18.19;31.29;97081.03;5095016;28;19965;-66
2023/05/13 09:10:46;;;;;;;;;;;;;;;18.27;30.35;97076.13;5095263;28;19920;-66
2023/05/13 09:13:13;;;;;;;;;;;;;;;17.99;29.48;97069.81;5094985;28;20363;-67
2023/05/13 09:15:41;;;;;;;;;;;;;;;17.81;31.03;97075.28;5094906;28;19970;-66
2023/05/13 09:18:09;;;;;;;;;;;;;;;18.14;32.02;97077.81;5094908;28;19969;-66
2023/05/13 09:20:36;;;;;;;;;;;;;;;18.36;31.23;97087.13;5094776;28;20019;-67
2023/05/13 09:23:04;;;;;;;;;;;;;;;18.64;34.72;97088.91;5094623;28;20285;-66
2023/05/13 09:25:32;;;;;;;;;;;;;;;19.00;32.16;97080.53;5094739;28;19920;-66
2023/05/13 09:28:00;;;;;;;;;;;;;;;19.16;30.80;97085.72;5094773;28;20278;-67
2023/05/13 09:30:27;;;;;;;;;;;;;;;19.03;32.27;97078.50;5094463;28;19931;-67
2023/05/13 09:33:08;;;;;;;;;;;;;;;18.89;31.44;97079.41;5094015;28;19920;-66
2023/05/13 09:35:36;;;;;;;;;;;;;;;18.78;32.57;97073.94;5094550;28;19920;-67
2023/05/13 09:38:11;;;;;;;;;;;;;;;18.56;31.19;97062.91;5094462;28;19920;-67
2023/05/13 09:40:40;;;;;;;;;;;;;;;18.48;32.07;97065.16;5094428;28;19920;-66
2023/05/13 09:43:08;;;;;;;;;;;;;;;18.56;32.15;97054.09;5094351;28;19920;-67
2023/05/13 09:45:35;;;;;;;;;;;;;;;18.87;32.47;97057.44;5094382;28;20014;-67
2023/05/13 09:48:02;;;;;;;;;;;;;;;19.09;32.29;97044.66;5094087;28;19989;-66
2023/05/13 09:50:31;;;;;;;;;;;;;;;18.84;29.87;97049.69;5094400;28;19971;-67
2023/05/13 09:52:58;;;;;;;;;;;;;;;18.67;30.32;97045.47;5094240;28;20003;-66
2023/05/13 09:55:25;;;;;;;;;;;;;;;18.50;29.28;97049.16;5094110;28;19973;-66
2023/05/13 09:57:53;;;;;;;;;;;;;;;18.60;29.03;97042.34;5094234;28;20374;-67
2023/05/13 10:00:20;;;;;;;;;;;;;;;18.60;30.17;97052.94;5094287;28;19973;-66
2023/05/13 10:02:47;;;;;;;;;;;;;;;18.11;30.96;97043.59;5093990;28;19973;-66
2023/05/13 10:05:14;;;;;;;;;;;;;;;18.21;33.42;97044.72;5094160;28;20378;-66
2023/05/13 10:07:41;;;;;;;;;;;;;;;18.31;29.84;97047.66;5094016;28;19930;-66
2023/05/13 10:10:08;;;;;;;;;;;;;;;18.24;29.41;97051.66;5094020;28;19920;-67
2023/05/13 10:12:36;;;;;;;;;;;;;;;18.29;32.17;97038.97;5093964;28;20445;-66
2023/05/13 10:15:05;;;;;;;;;;;;;;;18.31;30.11;97035.25;5093846;28;19920;-66
2023/05/13 10:17:32;;;;;;;;;;;;;;;18.41;31.05;97038.22;5093838;28;19927;-67
2023/05/13 10:19:59;;;;;;;;;;;;;;;18.52;30.38;97042.00;5093850;28;19927;-66
2023/05/13 10:22:28;;;;;;;;;;;;;;;18.63;29.05;97036.84;5093771;28;19920;-66
2023/05/13 10:24:56;;;;;;;;;;;;;;;18.42;29.95;97047.00;5093862;28;19924;-67
2023/05/13 10:27:26;;;;;;;;;;;;;;;18.38;31.38;97051.63;5093811;28;19930;-67
2023/05/13 10:29:54;;;;;;;;;;;;;;;18.55;31.09;97049.75;5093756;28;19920;-67
2023/05/13 10:32:23;;;;;;;;;;;;;;;18.90;30.73;97062.56;5093748;28;20353;-67
2023/05/13 10:34:51;;;;;;;;;;;;;;;18.98;32.02;97051.47;5093537;28;19923;-66
2023/05/13 10:37:43;;;;;;;;;;;;;;;18.91;29.29;97052.81;5093562;28;19920;-67
2023/05/13 10:40:20;;;;;;;;;;;;;;;18.89;32.34;97055.56;5093655;28;19975;-67
2023/05/13 10:42:51;;;;;;;;;;;;;;;19.23;30.85;97049.91;5095903;28;19928;-66
2023/05/13 10:45:18;;;;;;;;;;;;;;;19.27;29.80;97050.56;5100351;28;19969;-67
2023/05/13 10:47:49;;;;;;;;;;;;;;;19.16;30.68;97052.13;5099991;28;20358;-67
2023/05/13 10:50:24;;;;;;;;;;;;;;;19.32;32.73;97051.09;5100209;28;20281;-66
2023/05/13 10:52:51;;;;;;;;;;;;;;;19.54;31.57;97057.66;5100358;28;20023;-66
2023/05/13 10:55:19;;;;;;;;;;;;;;;19.69;30.55;97048.66;5100242;28;20365;-66
2023/05/13 10:58:05;;;;;;;;;;;;;;;19.67;32.53;97039.97;5100187;28;19924;-67
2023/05/13 11:00:32;;;;;;;;;;;;;;;19.62;29.43;97046.53;5100106;28;20373;-66
2023/05/13 11:03:10;;;;;;;;;;;;;;;19.47;29.27;97043.09;5100133;28;20019;-66
2023/05/13 11:05:39;;;;;;;;;;;;;;;19.64;28.99;97031.34;5100215;28;20297;-67
2023/05/13 11:08:06;;;;;;;;;;;;;;;19.66;33.11;97040.88;5100058;28;19942;-67
2023/05/13 11:10:36;;;;;;;;;;;;;;;19.98;30.32;97052.94;5100024;28;19967;-67
2023/05/13 11:13:24;;;;;;;;;;;;;;;20.18;32.32;97045.44;5100090;28;20440;-66
2023/05/13 11:15:52;;;;;;;;;;;;;;;19.74;28.22;97048.34;5099973;28;19928;-66
2023/05/13 11:18:29;;;;;;;;;;;;;;;19.69;29.83;97035.38;5100009;28;19973;-66
2023/05/13 11:20:56;;;;;;;;;;;;;;;19.64;31.26;97032.19;5099898;28;19974;-66
2023/05/13 11:23:23;;;;;;;;;;;;;;;19.74;32.11;97028.94;5099813;28;19927;-65
2023/05/13 11:26:04;;;;;;;;;;;;;;;19.95;31.49;97027.47;5099961;28;19974;-67
2023/05/13 11:28:46;;;;;;;;;;;;;;;20.16;30.56;97019.00;5099842;28;19942;-67
2023/05/13 11:31:17;;;;;;;;;;;;;;;20.13;29.42;97018.34;5099662;28;19924;-67
2023/05/13 11:33:58;;;;;;;;;;;;;;;20.03;31.83;97032.28;5099938;28;19920;-67
2023/05/13 11:36:31;;;;;;;;;;;;;;;19.87;30.62;97043.03;5099746;28;19924;-67
2023/05/13 11:39:04;;;;;;;;;;;;;;;19.58;29.45;97037.91;5099997;28;19920;-67
2023/05/13 11:41:32;;;;;;;;;;;;;;;19.56;31.24;97034.50;5099994;28;19920;-67
2023/05/13 11:44:02;;;;;;;;;;;;;;;19.47;31.10;97035.13;5099722;28;20450;-67
2023/05/13 11:46:29;;;;;;;;;;;;;;;19.19;30.68;97029.84;5099876;28;19975;-67
2023/05/13 11:48:56;;;;;;;;;;;;;;;19.12;30.61;97023.25;5099569;28;19920;-67
2023/05/13 11:51:24;;;;;;;;;;;;;;;18.96;31.96;97036.63;5099667;28;20367;-67
2023/05/13 11:53:59;;;;;;;;;;;;;;;18.90;31.63;97036.06;5098613;28;19924;-67
2023/05/13 11:56:27;;;;;;;;;;;;;;;18.91;31.39;97051.00;5096428;28;20284;-67
2023/05/13 11:58:54;;;;;;;;;;;;;;;18.85;32.35;97047.91;5096441;28;20018;-67
2023/05/13 12:01:21;;;;;;;;;;;;;;;19.00;33.33;97056.66;5096430;28;19924;-67
2023/05/13 12:03:49;;;;;;;;;;;;;;;19.28;31.84;97045.16;5096406;28;19919;-67
2023/05/13 12:06:16;;;;;;;;;;;;;;;19.43;31.97;97042.44;5096268;28;20340;-67
2023/05/13 12:08:44;;;;;;;;;;;;;;;19.54;33.03;97041.72;5096213;28;20010;-67
2023/05/13 12:11:13;;;;;;;;;;;;;;;19.47;30.47;97040.44;5096168;28;19924;-67
2023/05/13 12:13:41;;;;;;;;;;;;;;;19.52;33.01;97044.50;5096126;28;19973;-67
2023/05/13 12:16:09;;;;;;;;;;;;;;;19.74;32.60;97040.38;5096037;28;19954;-67
2023/05/13 12:18:37;;;;;;;;;;;;;;;20.00;34.24;97027.16;5096099;28;20353;-67
2023/05/13 12:21:14;;;;;;;;;;;;;;;20.15;30.15;97025.28;5096125;28;19981;-67
2023/05/13 12:23:41;;;;;;;;;;;;;;;20.24;32.12;97015.81;5095993;28;20002;-67
2023/05/13 12:26:09;;;;;;;;;;;;;;;20.11;29.78;97020.28;5096019;28;20356;-68
2023/05/13 12:28:38;;;;;;;;;;;;;;;19.75;29.29;97027.97;5096055;28;19927;-67
2023/05/13 12:31:05;;;;;;;;;;;;;;;19.48;32.03;97016.47;5096006;28;19927;-67
2023/05/13 12:33:33;;;;;;;;;;;;;;;19.40;30.63;97009.03;5095758;28;19920;-68
2023/05/13 12:36:18;;;;;;;;;;;;;;;19.38;32.18;97010.91;5095722;28;19924;-67
2023/05/13 12:38:55;;;;;;;;;;;;;;;19.37;31.00;97003.06;5095741;28;20376;-67
2023/05/13 12:41:24;;;;;;;;;;;;;;;19.35;30.68;97000.50;5095619;28;20352;-67
2023/05/13 12:43:58;;;;;;;;;;;;;;;19.29;31.02;97008.84;5095532;28;19924;-67
2023/05/13 12:46:25;;;;;;;;;;;;;;;19.12;32.46;97002.91;5095496;28;19968;-68
2023/05/13 12:48:59;;;;;;;;;;;;;;;19.26;32.62;96994.00;5095279;28;19920;-67
2023/05/13 12:51:28;;;;;;;;;;;;;;;19.44;31.50;96991.94;5095388;28;19927;-67
2023/05/13 12:53:56;;;;;;;;;;;;;;;19.44;33.08;96988.44;5095296;28;19973;-66
2023/05/13 12:56:24;;;;;;;;;;;;;;;19.46;32.25;96986.53;5095314;28;20010;-66